sensor_id;sensor_type;location;lat;lon;timestamp;P1;durP1;ratioP1;P2;durP2;ratioP2
53618;SDS011;39505;53.040;18.488;2023-02-14T00:00:03;21.88;;;11.93;;
53618;SDS011;39505;53.040;18.488;2023-02-14T00:00:16;19.67;;;11.60;;
53618;SDS011;39505;53.040;18.488;2023-02-14T00:00:50;21.45;;;11.45;;
53618;SDS011;39505;53.040;18.488;2023-02-14T00:01:11;20.98;;;11.18;;
53618;SDS011;39505;53.040;18.488;2023-02-14T00:01:24;20.30;;;11.68;;
53618;SDS011;39505;53.040;18.488;2023-02-14T00:01:37;21.55;;;11.90;;
53618;SDS011;39505;53.040;18.488;2023-02-14T00:01:50;23.65;;;11.75;;
53618;SDS011;39505;53.040;18.488;2023-02-14T00:02:03;23.02;;;11.57;;
53618;SDS011;39505;53.040;18.488;2023-02-14T00:02:16;22.40;;;11.63;;
53618;SDS011;39505;53.040;18.488;2023-02-14T00:02:30;21.83;;;11.55;;
53618;SDS011;39505;53.040;18.488;2023-02-14T00:02:43;22.65;;;11.82;;
53618;SDS011;39505;53.040;18.488;2023-02-14T00:02:56;21.98;;;11.50;;
53618;SDS011;39505;53.040;18.488;2023-02-14T00:03:09;19.60;;;10.93;;
53618;SDS011;39505;53.040;18.488;2023-02-14T00:03:22;19.80;;;10.75;;
53618;SDS011;39505;53.040;18.488;2023-02-14T00:03:35;20.65;;;10.82;;
53618;SDS011;39505;53.040;18.488;2023-02-14T00:03:48;21.88;;;11.07;;
53618;SDS011;39505;53.040;18.488;2023-02-14T00:04:01;22.15;;;11.23;;
53618;SDS011;39505;53.040;18.488;2023-02-14T00:04:15;20.65;;;11.07;;
53618;SDS011;39505;53.040;18.488;2023-02-14T00:04:30;20.75;;;11.38;;
53618;SDS011;39505;53.040;18.488;2023-02-14T00:04:43;20.67;;;11.75;;
53618;SDS011;39505;53.040;18.488;2023-02-14T00:04:58;21.60;;;11.52;;
53618;SDS011;39505;53.040;18.488;2023-02-14T00:05:11;21.27;;;11.13;;
53618;SDS011;39505;53.040;18.488;2023-02-14T00:05:25;22.67;;;11.35;;
53618;SDS011;39505;53.040;18.488;2023-02-14T00:05:37;23.15;;;11.25;;
53618;SDS011;39505;53.040;18.488;2023-02-14T00:05:50;20.55;;;11.18;;
53618;SDS011;39505;53.040;18.488;2023-02-14T00:06:04;20.05;;;11.30;;
53618;SDS011;39505;53.040;18.488;2023-02-14T00:06:17;19.13;;;11.13;;
53618;SDS011;39505;53.040;18.488;2023-02-14T00:06:30;20.35;;;11.32;;
53618;SDS011;39505;53.040;18.488;2023-02-14T00:06:46;21.48;;;11.55;;
53618;SDS011;39505;53.040;18.488;2023-02-14T00:07:00;20.85;;;11.35;;
53618;SDS011;39505;53.040;18.488;2023-02-14T00:07:13;21.70;;;11.52;;
53618;SDS011;39505;53.040;18.488;2023-02-14T00:07:26;22.25;;;11.75;;
53618;SDS011;39505;53.040;18.488;2023-02-14T00:07:39;21.83;;;11.95;;
53618;SDS011;39505;53.040;18.488;2023-02-14T00:07:51;21.65;;;12.23;;
53618;SDS011;39505;53.040;18.488;2023-02-14T00:08:06;22.85;;;12.18;;
53618;SDS011;39505;53.040;18.488;2023-02-14T00:08:18;23.95;;;11.85;;
53618;SDS011;39505;53.040;18.488;2023-02-14T00:08:31;24.75;;;12.02;;
53618;SDS011;39505;53.040;18.488;2023-02-14T00:08:44;26.02;;;12.23;;
53618;SDS011;39505;53.040;18.488;2023-02-14T00:08:57;22.85;;;11.95;;
53618;SDS011;39505;53.040;18.488;2023-02-14T00:09:11;22.25;;;12.40;;
53618;SDS011;39505;53.040;18.488;2023-02-14T00:09:26;22.73;;;12.90;;
53618;SDS011;39505;53.040;18.488;2023-02-14T00:09:39;20.95;;;12.95;;
53618;SDS011;39505;53.040;18.488;2023-02-14T00:09:52;21.52;;;12.95;;
53618;SDS011;39505;53.040;18.488;2023-02-14T00:10:06;23.00;;;13.05;;
53618;SDS011;39505;53.040;18.488;2023-02-14T00:10:19;22.33;;;12.85;;
53618;SDS011;39505;53.040;18.488;2023-02-14T00:10:32;22.25;;;12.98;;
53618;SDS011;39505;53.040;18.488;2023-02-14T00:10:45;23.85;;;13.55;;
53618;SDS011;39505;53.040;18.488;2023-02-14T00:10:58;23.58;;;13.60;;
53618;SDS011;39505;53.040;18.488;2023-02-14T00:11:11;23.92;;;13.23;;
53618;SDS011;39505;53.040;18.488;2023-02-14T00:11:27;24.38;;;13.38;;
53618;SDS011;39505;53.040;18.488;2023-02-14T00:11:41;24.15;;;13.32;;
53618;SDS011;39505;53.040;18.488;2023-02-14T00:11:54;24.95;;;13.27;;
53618;SDS011;39505;53.040;18.488;2023-02-14T00:12:07;25.27;;;13.10;;
53618;SDS011;39505;53.040;18.488;2023-02-14T00:12:22;26.05;;;13.10;;
53618;SDS011;39505;53.040;18.488;2023-02-14T00:12:36;25.58;;;13.25;;
53618;SDS011;39505;53.040;18.488;2023-02-14T00:12:49;25.05;;;13.52;;
53618;SDS011;39505;53.040;18.488;2023-02-14T00:13:02;24.67;;;13.85;;
53618;SDS011;39505;53.040;18.488;2023-02-14T00:13:14;26.85;;;13.95;;
53618;SDS011;39505;53.040;18.488;2023-02-14T00:13:27;27.67;;;13.52;;
53618;SDS011;39505;53.040;18.488;2023-02-14T00:13:40;25.65;;;12.85;;
53618;SDS011;39505;53.040;18.488;2023-02-14T00:14:15;23.08;;;12.60;;
53618;SDS011;39505;53.040;18.488;2023-02-14T00:14:46;25.33;;;11.90;;
53618;SDS011;39505;53.040;18.488;2023-02-14T00:15:17;23.90;;;12.05;;
53618;SDS011;39505;53.040;18.488;2023-02-14T00:15:33;22.40;;;12.02;;
53618;SDS011;39505;53.040;18.488;2023-02-14T00:15:46;23.83;;;12.15;;
53618;SDS011;39505;53.040;18.488;2023-02-14T00:15:59;25.02;;;12.48;;
53618;SDS011;39505;53.040;18.488;2023-02-14T00:16:12;22.60;;;12.35;;
53618;SDS011;39505;53.040;18.488;2023-02-14T00:16:24;21.50;;;11.98;;
53618;SDS011;39505;53.040;18.488;2023-02-14T00:16:37;22.80;;;11.68;;
53618;SDS011;39505;53.040;18.488;2023-02-14T00:16:50;21.73;;;11.48;;
53618;SDS011;39505;53.040;18.488;2023-02-14T00:17:03;19.95;;;11.50;;
53618;SDS011;39505;53.040;18.488;2023-02-14T00:17:16;20.73;;;12.00;;
53618;SDS011;39505;53.040;18.488;2023-02-14T00:17:30;23.52;;;12.13;;
53618;SDS011;39505;53.040;18.488;2023-02-14T00:17:43;25.95;;;12.20;;
53618;SDS011;39505;53.040;18.488;2023-02-14T00:17:56;25.77;;;12.38;;
53618;SDS011;39505;53.040;18.488;2023-02-14T00:18:10;25.23;;;12.73;;
53618;SDS011;39505;53.040;18.488;2023-02-14T00:18:23;25.40;;;12.50;;
53618;SDS011;39505;53.040;18.488;2023-02-14T00:18:58;22.48;;;12.50;;
53618;SDS011;39505;53.040;18.488;2023-02-14T00:19:17;22.33;;;12.10;;
53618;SDS011;39505;53.040;18.488;2023-02-14T00:19:32;23.58;;;11.68;;
53618;SDS011;39505;53.040;18.488;2023-02-14T00:19:45;22.63;;;11.60;;
53618;SDS011;39505;53.040;18.488;2023-02-14T00:19:58;22.27;;;11.73;;
53618;SDS011;39505;53.040;18.488;2023-02-14T00:20:12;22.80;;;12.35;;
53618;SDS011;39505;53.040;18.488;2023-02-14T00:20:25;23.17;;;12.30;;
53618;SDS011;39505;53.040;18.488;2023-02-14T00:20:39;23.95;;;12.00;;
53618;SDS011;39505;53.040;18.488;2023-02-14T00:20:52;23.58;;;11.95;;
53618;SDS011;39505;53.040;18.488;2023-02-14T00:21:04;22.48;;;11.75;;
53618;SDS011;39505;53.040;18.488;2023-02-14T00:21:17;23.00;;;11.82;;
53618;SDS011;39505;53.040;18.488;2023-02-14T00:21:30;24.30;;;12.05;;
53618;SDS011;39505;53.040;18.488;2023-02-14T00:21:44;25.13;;;12.15;;
53618;SDS011;39505;53.040;18.488;2023-02-14T00:21:58;25.27;;;11.98;;
53618;SDS011;39505;53.040;18.488;2023-02-14T00:22:13;24.88;;;11.85;;
53618;SDS011;39505;53.040;18.488;2023-02-14T00:22:25;22.10;;;11.93;;
53618;SDS011;39505;53.040;18.488;2023-02-14T00:22:38;22.15;;;11.80;;
53618;SDS011;39505;53.040;18.488;2023-02-14T00:22:51;22.05;;;11.75;;
53618;SDS011;39505;53.040;18.488;2023-02-14T00:23:04;21.02;;;11.55;;
53618;SDS011;39505;53.040;18.488;2023-02-14T00:23:18;21.73;;;11.55;;
53618;SDS011;39505;53.040;18.488;2023-02-14T00:23:31;22.10;;;11.48;;
53618;SDS011;39505;53.040;18.488;2023-02-14T00:23:44;21.63;;;11.23;;
53618;SDS011;39505;53.040;18.488;2023-02-14T00:23:57;20.42;;;11.32;;
53618;SDS011;39505;53.040;18.488;2023-02-14T00:24:10;22.38;;;12.07;;
53618;SDS011;39505;53.040;18.488;2023-02-14T00:24:25;23.98;;;12.13;;
53618;SDS011;39505;53.040;18.488;2023-02-14T00:24:38;22.33;;;12.20;;
53618;SDS011;39505;53.040;18.488;2023-02-14T00:24:52;22.23;;;12.25;;
53618;SDS011;39505;53.040;18.488;2023-02-14T00:25:05;22.65;;;12.05;;
53618;SDS011;39505;53.040;18.488;2023-02-14T00:25:18;22.17;;;12.00;;
53618;SDS011;39505;53.040;18.488;2023-02-14T00:25:32;22.10;;;12.18;;
53618;SDS011;39505;53.040;18.488;2023-02-14T00:25:45;22.55;;;12.30;;
53618;SDS011;39505;53.040;18.488;2023-02-14T00:25:58;21.77;;;11.95;;
53618;SDS011;39505;53.040;18.488;2023-02-14T00:26:13;21.58;;;12.07;;
53618;SDS011;39505;53.040;18.488;2023-02-14T00:26:27;23.77;;;12.85;;
53618;SDS011;39505;53.040;18.488;2023-02-14T00:26:41;24.50;;;12.98;;
53618;SDS011;39505;53.040;18.488;2023-02-14T00:26:54;24.30;;;12.60;;
53618;SDS011;39505;53.040;18.488;2023-02-14T00:27:07;24.15;;;12.43;;
53618;SDS011;39505;53.040;18.488;2023-02-14T00:27:19;23.40;;;11.85;;
53618;SDS011;39505;53.040;18.488;2023-02-14T00:27:32;21.58;;;11.52;;
53618;SDS011;39505;53.040;18.488;2023-02-14T00:27:45;20.85;;;11.20;;
53618;SDS011;39505;53.040;18.488;2023-02-14T00:27:59;20.35;;;10.95;;
53618;SDS011;39505;53.040;18.488;2023-02-14T00:28:12;19.67;;;11.13;;
53618;SDS011;39505;53.040;18.488;2023-02-14T00:28:25;20.52;;;11.52;;
53618;SDS011;39505;53.040;18.488;2023-02-14T00:28:38;22.17;;;12.07;;
53618;SDS011;39505;53.040;18.488;2023-02-14T00:28:50;23.38;;;11.95;;
53618;SDS011;39505;53.040;18.488;2023-02-14T00:29:03;23.08;;;11.73;;
53618;SDS011;39505;53.040;18.488;2023-02-14T00:29:17;20.75;;;11.48;;
53618;SDS011;39505;53.040;18.488;2023-02-14T00:29:31;21.23;;;11.57;;
53618;SDS011;39505;53.040;18.488;2023-02-14T00:29:45;21.27;;;11.77;;
53618;SDS011;39505;53.040;18.488;2023-02-14T00:29:58;20.98;;;11.85;;
53618;SDS011;39505;53.040;18.488;2023-02-14T00:30:13;20.25;;;11.55;;
53618;SDS011;39505;53.040;18.488;2023-02-14T00:30:27;23.40;;;12.10;;
53618;SDS011;39505;53.040;18.488;2023-02-14T00:30:40;25.92;;;12.38;;
53618;SDS011;39505;53.040;18.488;2023-02-14T00:30:55;24.33;;;12.00;;
53618;SDS011;39505;53.040;18.488;2023-02-14T00:31:08;20.30;;;12.07;;
53618;SDS011;39505;53.040;18.488;2023-02-14T00:31:22;21.17;;;12.27;;
53618;SDS011;39505;53.040;18.488;2023-02-14T00:31:35;22.15;;;12.10;;
53618;SDS011;39505;53.040;18.488;2023-02-14T00:31:49;22.70;;;12.35;;
53618;SDS011;39505;53.040;18.488;2023-02-14T00:32:02;23.20;;;12.55;;
53618;SDS011;39505;53.040;18.488;2023-02-14T00:32:15;24.02;;;12.30;;
53618;SDS011;39505;53.040;18.488;2023-02-14T00:32:29;23.67;;;12.00;;
53618;SDS011;39505;53.040;18.488;2023-02-14T00:32:42;22.17;;;12.10;;
53618;SDS011;39505;53.040;18.488;2023-02-14T00:32:55;21.10;;;11.82;;
53618;SDS011;39505;53.040;18.488;2023-02-14T00:33:08;20.27;;;11.90;;
53618;SDS011;39505;53.040;18.488;2023-02-14T00:33:21;21.05;;;11.98;;
53618;SDS011;39505;53.040;18.488;2023-02-14T00:33:34;22.00;;;12.02;;
53618;SDS011;39505;53.040;18.488;2023-02-14T00:33:46;21.88;;;12.25;;
53618;SDS011;39505;53.040;18.488;2023-02-14T00:33:59;21.55;;;12.63;;
53618;SDS011;39505;53.040;18.488;2023-02-14T00:34:14;22.38;;;12.93;;
53618;SDS011;39505;53.040;18.488;2023-02-14T00:34:28;22.08;;;12.52;;
53618;SDS011;39505;53.040;18.488;2023-02-14T00:34:41;22.13;;;12.07;;
53618;SDS011;39505;53.040;18.488;2023-02-14T00:34:53;22.55;;;12.38;;
53618;SDS011;39505;53.040;18.488;2023-02-14T00:35:07;23.38;;;12.40;;
53618;SDS011;39505;53.040;18.488;2023-02-14T00:35:23;23.13;;;12.40;;
53618;SDS011;39505;53.040;18.488;2023-02-14T00:35:36;22.27;;;12.13;;
53618;SDS011;39505;53.040;18.488;2023-02-14T00:35:49;21.90;;;12.05;;
53618;SDS011;39505;53.040;18.488;2023-02-14T00:36:02;21.10;;;11.80;;
53618;SDS011;39505;53.040;18.488;2023-02-14T00:36:16;21.83;;;11.40;;
53618;SDS011;39505;53.040;18.488;2023-02-14T00:36:31;21.80;;;10.77;;
53618;SDS011;39505;53.040;18.488;2023-02-14T00:36:44;20.52;;;10.95;;
53618;SDS011;39505;53.040;18.488;2023-02-14T00:36:59;19.58;;;11.35;;
53618;SDS011;39505;53.040;18.488;2023-02-14T00:37:13;19.90;;;11.45;;
53618;SDS011;39505;53.040;18.488;2023-02-14T00:37:26;21.17;;;11.43;;
53618;SDS011;39505;53.040;18.488;2023-02-14T00:37:38;22.10;;;11.23;;
53618;SDS011;39505;53.040;18.488;2023-02-14T00:37:51;20.90;;;11.18;;
53618;SDS011;39505;53.040;18.488;2023-02-14T00:38:04;19.83;;;11.13;;
53618;SDS011;39505;53.040;18.488;2023-02-14T00:38:17;20.45;;;11.20;;
53618;SDS011;39505;53.040;18.488;2023-02-14T00:38:30;20.50;;;11.25;;
53618;SDS011;39505;53.040;18.488;2023-02-14T00:38:44;21.95;;;11.38;;
53618;SDS011;39505;53.040;18.488;2023-02-14T00:38:56;21.83;;;11.57;;
53618;SDS011;39505;53.040;18.488;2023-02-14T00:39:10;21.38;;;11.95;;
53618;SDS011;39505;53.040;18.488;2023-02-14T00:39:24;21.38;;;11.85;;
53618;SDS011;39505;53.040;18.488;2023-02-14T00:39:37;19.92;;;11.55;;
53618;SDS011;39505;53.040;18.488;2023-02-14T00:39:50;21.13;;;11.57;;
53618;SDS011;39505;53.040;18.488;2023-02-14T00:40:04;22.73;;;11.52;;
53618;SDS011;39505;53.040;18.488;2023-02-14T00:40:19;24.65;;;11.30;;
53618;SDS011;39505;53.040;18.488;2023-02-14T00:40:31;24.35;;;11.15;;
53618;SDS011;39505;53.040;18.488;2023-02-14T00:40:44;21.77;;;11.40;;
53618;SDS011;39505;53.040;18.488;2023-02-14T00:40:57;21.23;;;11.35;;
53618;SDS011;39505;53.040;18.488;2023-02-14T00:41:10;21.23;;;11.50;;
53618;SDS011;39505;53.040;18.488;2023-02-14T00:41:30;20.67;;;12.05;;
53618;SDS011;39505;53.040;18.488;2023-02-14T00:41:43;24.38;;;12.38;;
53618;SDS011;39505;53.040;18.488;2023-02-14T00:41:57;24.77;;;12.15;;
53618;SDS011;39505;53.040;18.488;2023-02-14T00:42:10;22.85;;;11.73;;
53618;SDS011;39505;53.040;18.488;2023-02-14T00:42:24;22.48;;;12.07;;
53618;SDS011;39505;53.040;18.488;2023-02-14T00:42:38;22.08;;;11.82;;
53618;SDS011;39505;53.040;18.488;2023-02-14T00:42:50;22.33;;;11.80;;
53618;SDS011;39505;53.040;18.488;2023-02-14T00:43:03;22.05;;;11.52;;
53618;SDS011;39505;53.040;18.488;2023-02-14T00:43:17;22.85;;;11.23;;
53618;SDS011;39505;53.040;18.488;2023-02-14T00:43:30;24.13;;;11.50;;
53618;SDS011;39505;53.040;18.488;2023-02-14T00:43:43;24.95;;;11.82;;
53618;SDS011;39505;53.040;18.488;2023-02-14T00:43:57;22.23;;;12.00;;
53618;SDS011;39505;53.040;18.488;2023-02-14T00:44:10;20.83;;;11.63;;
53618;SDS011;39505;53.040;18.488;2023-02-14T00:44:24;23.58;;;12.00;;
53618;SDS011;39505;53.040;18.488;2023-02-14T00:44:38;26.88;;;12.80;;
53618;SDS011;39505;53.040;18.488;2023-02-14T00:44:51;27.15;;;14.20;;
53618;SDS011;39505;53.040;18.488;2023-02-14T00:45:04;26.90;;;14.65;;
53618;SDS011;39505;53.040;18.488;2023-02-14T00:45:17;25.35;;;13.95;;
53618;SDS011;39505;53.040;18.488;2023-02-14T00:45:31;25.90;;;13.48;;
53618;SDS011;39505;53.040;18.488;2023-02-14T00:45:44;25.65;;;13.82;;
53618;SDS011;39505;53.040;18.488;2023-02-14T00:45:57;25.45;;;13.80;;
53618;SDS011;39505;53.040;18.488;2023-02-14T00:46:10;24.85;;;13.57;;
53618;SDS011;39505;53.040;18.488;2023-02-14T00:46:24;24.08;;;13.07;;
53618;SDS011;39505;53.040;18.488;2023-02-14T00:46:37;24.15;;;12.85;;
53618;SDS011;39505;53.040;18.488;2023-02-14T00:46:50;25.92;;;12.63;;
53618;SDS011;39505;53.040;18.488;2023-02-14T00:47:03;24.48;;;12.57;;
53618;SDS011;39505;53.040;18.488;2023-02-14T00:47:16;23.92;;;12.70;;
53618;SDS011;39505;53.040;18.488;2023-02-14T00:47:30;23.08;;;12.90;;
53618;SDS011;39505;53.040;18.488;2023-02-14T00:47:43;24.42;;;13.20;;
53618;SDS011;39505;53.040;18.488;2023-02-14T00:47:56;24.27;;;13.20;;
53618;SDS011;39505;53.040;18.488;2023-02-14T00:48:09;21.58;;;12.30;;
53618;SDS011;39505;53.040;18.488;2023-02-14T00:48:22;22.98;;;12.23;;
53618;SDS011;39505;53.040;18.488;2023-02-14T00:48:35;25.13;;;12.85;;
53618;SDS011;39505;53.040;18.488;2023-02-14T00:48:47;25.38;;;13.23;;
53618;SDS011;39505;53.040;18.488;2023-02-14T00:49:00;23.20;;;12.77;;
53618;SDS011;39505;53.040;18.488;2023-02-14T00:49:13;23.45;;;13.02;;
53618;SDS011;39505;53.040;18.488;2023-02-14T00:49:27;21.65;;;12.80;;
53618;SDS011;39505;53.040;18.488;2023-02-14T00:49:40;21.00;;;12.70;;
53618;SDS011;39505;53.040;18.488;2023-02-14T00:49:53;20.02;;;12.60;;
53618;SDS011;39505;53.040;18.488;2023-02-14T00:50:06;19.70;;;12.45;;
53618;SDS011;39505;53.040;18.488;2023-02-14T00:50:19;20.20;;;12.10;;
53618;SDS011;39505;53.040;18.488;2023-02-14T00:50:33;19.83;;;11.50;;
53618;SDS011;39505;53.040;18.488;2023-02-14T00:50:46;21.23;;;11.48;;
53618;SDS011;39505;53.040;18.488;2023-02-14T00:50:58;23.95;;;12.07;;
53618;SDS011;39505;53.040;18.488;2023-02-14T00:51:12;24.60;;;12.55;;
53618;SDS011;39505;53.040;18.488;2023-02-14T00:51:25;21.45;;;12.23;;
53618;SDS011;39505;53.040;18.488;2023-02-14T00:51:39;21.77;;;11.90;;
53618;SDS011;39505;53.040;18.488;2023-02-14T00:51:52;22.33;;;12.10;;
53618;SDS011;39505;53.040;18.488;2023-02-14T00:52:07;22.10;;;12.55;;
53618;SDS011;39505;53.040;18.488;2023-02-14T00:52:20;21.95;;;12.52;;
53618;SDS011;39505;53.040;18.488;2023-02-14T00:52:33;22.08;;;12.20;;
53618;SDS011;39505;53.040;18.488;2023-02-14T00:52:46;21.92;;;11.82;;
53618;SDS011;39505;53.040;18.488;2023-02-14T00:52:58;21.67;;;12.10;;
53618;SDS011;39505;53.040;18.488;2023-02-14T00:53:11;22.63;;;12.10;;
53618;SDS011;39505;53.040;18.488;2023-02-14T00:53:24;22.98;;;11.77;;
53618;SDS011;39505;53.040;18.488;2023-02-14T00:53:38;23.50;;;11.93;;
53618;SDS011;39505;53.040;18.488;2023-02-14T00:53:51;23.75;;;11.95;;
53618;SDS011;39505;53.040;18.488;2023-02-14T00:54:04;24.88;;;12.10;;
53618;SDS011;39505;53.040;18.488;2023-02-14T00:54:17;23.48;;;11.90;;
53618;SDS011;39505;53.040;18.488;2023-02-14T00:54:30;24.10;;;11.68;;
53618;SDS011;39505;53.040;18.488;2023-02-14T00:54:44;21.83;;;11.57;;
53618;SDS011;39505;53.040;18.488;2023-02-14T00:54:56;19.52;;;11.30;;
53618;SDS011;39505;53.040;18.488;2023-02-14T00:55:09;20.77;;;11.32;;
53618;SDS011;39505;53.040;18.488;2023-02-14T00:55:22;23.10;;;12.02;;
53618;SDS011;39505;53.040;18.488;2023-02-14T00:55:35;23.33;;;12.43;;
53618;SDS011;39505;53.040;18.488;2023-02-14T00:55:48;23.05;;;12.25;;
53618;SDS011;39505;53.040;18.488;2023-02-14T00:56:01;21.73;;;12.00;;
53618;SDS011;39505;53.040;18.488;2023-02-14T00:56:14;22.63;;;11.70;;
53618;SDS011;39505;53.040;18.488;2023-02-14T00:56:29;24.77;;;11.82;;
53618;SDS011;39505;53.040;18.488;2023-02-14T00:56:43;23.80;;;12.18;;
53618;SDS011;39505;53.040;18.488;2023-02-14T00:56:55;21.90;;;11.93;;
53618;SDS011;39505;53.040;18.488;2023-02-14T00:57:10;20.25;;;11.55;;
53618;SDS011;39505;53.040;18.488;2023-02-14T00:57:23;19.45;;;11.35;;
53618;SDS011;39505;53.040;18.488;2023-02-14T00:57:35;20.13;;;11.55;;
53618;SDS011;39505;53.040;18.488;2023-02-14T00:57:49;22.08;;;11.65;;
53618;SDS011;39505;53.040;18.488;2023-02-14T00:58:02;21.95;;;11.73;;
53618;SDS011;39505;53.040;18.488;2023-02-14T00:58:15;19.80;;;11.63;;
53618;SDS011;39505;53.040;18.488;2023-02-14T00:58:28;19.92;;;11.30;;
53618;SDS011;39505;53.040;18.488;2023-02-14T00:58:41;21.55;;;11.35;;
53618;SDS011;39505;53.040;18.488;2023-02-14T00:58:54;21.55;;;11.40;;
53618;SDS011;39505;53.040;18.488;2023-02-14T00:59:07;22.00;;;11.43;;
53618;SDS011;39505;53.040;18.488;2023-02-14T00:59:21;22.17;;;11.27;;
53618;SDS011;39505;53.040;18.488;2023-02-14T00:59:33;21.70;;;11.25;;
53618;SDS011;39505;53.040;18.488;2023-02-14T00:59:46;20.35;;;10.65;;
53618;SDS011;39505;53.040;18.488;2023-02-14T00:59:59;19.20;;;10.65;;
53618;SDS011;39505;53.040;18.488;2023-02-14T01:00:12;21.33;;;11.35;;
53618;SDS011;39505;53.040;18.488;2023-02-14T01:00:26;21.98;;;11.50;;
53618;SDS011;39505;53.040;18.488;2023-02-14T01:00:39;21.15;;;11.20;;
53618;SDS011;39505;53.040;18.488;2023-02-14T01:00:53;20.13;;;11.00;;
53618;SDS011;39505;53.040;18.488;2023-02-14T01:01:06;20.02;;;11.25;;
53618;SDS011;39505;53.040;18.488;2023-02-14T01:01:19;18.02;;;11.07;;
53618;SDS011;39505;53.040;18.488;2023-02-14T01:01:32;20.73;;;10.82;;
53618;SDS011;39505;53.040;18.488;2023-02-14T01:01:45;21.60;;;10.70;;
53618;SDS011;39505;53.040;18.488;2023-02-14T01:01:59;20.83;;;10.80;;
53618;SDS011;39505;53.040;18.488;2023-02-14T01:02:12;20.13;;;11.30;;
53618;SDS011;39505;53.040;18.488;2023-02-14T01:02:25;20.30;;;11.35;;
53618;SDS011;39505;53.040;18.488;2023-02-14T01:02:37;20.58;;;11.00;;
53618;SDS011;39505;53.040;18.488;2023-02-14T01:02:50;21.77;;;11.20;;
53618;SDS011;39505;53.040;18.488;2023-02-14T01:03:03;20.38;;;10.82;;
53618;SDS011;39505;53.040;18.488;2023-02-14T01:03:18;19.35;;;10.40;;
53618;SDS011;39505;53.040;18.488;2023-02-14T01:03:31;18.48;;;10.40;;
53618;SDS011;39505;53.040;18.488;2023-02-14T01:03:44;19.55;;;10.88;;
53618;SDS011;39505;53.040;18.488;2023-02-14T01:03:57;18.38;;;10.95;;
53618;SDS011;39505;53.040;18.488;2023-02-14T01:04:10;18.38;;;10.90;;
53618;SDS011;39505;53.040;18.488;2023-02-14T01:04:24;20.15;;;11.05;;
53618;SDS011;39505;53.040;18.488;2023-02-14T01:04:37;21.05;;;11.18;;
53618;SDS011;39505;53.040;18.488;2023-02-14T01:04:50;20.90;;;11.32;;
53618;SDS011;39505;53.040;18.488;2023-02-14T01:05:03;21.00;;;11.48;;
53618;SDS011;39505;53.040;18.488;2023-02-14T01:05:16;20.45;;;11.32;;
53618;SDS011;39505;53.040;18.488;2023-02-14T01:05:29;21.17;;;11.65;;
53618;SDS011;39505;53.040;18.488;2023-02-14T01:05:42;21.55;;;11.80;;
53618;SDS011;39505;53.040;18.488;2023-02-14T01:05:55;22.23;;;11.73;;
53618;SDS011;39505;53.040;18.488;2023-02-14T01:06:09;21.00;;;11.60;;
53618;SDS011;39505;53.040;18.488;2023-02-14T01:06:22;22.25;;;12.20;;
53618;SDS011;39505;53.040;18.488;2023-02-14T01:06:35;23.52;;;12.27;;
53618;SDS011;39505;53.040;18.488;2023-02-14T01:06:48;23.75;;;11.52;;
53618;SDS011;39505;53.040;18.488;2023-02-14T01:07:01;21.95;;;11.13;;
53618;SDS011;39505;53.040;18.488;2023-02-14T01:07:15;20.40;;;10.98;;
53618;SDS011;39505;53.040;18.488;2023-02-14T01:07:29;19.52;;;11.30;;
53618;SDS011;39505;53.040;18.488;2023-02-14T01:07:41;20.60;;;11.60;;
53618;SDS011;39505;53.040;18.488;2023-02-14T01:07:54;22.92;;;11.52;;
53618;SDS011;39505;53.040;18.488;2023-02-14T01:08:07;23.90;;;11.43;;
53618;SDS011;39505;53.040;18.488;2023-02-14T01:08:20;22.35;;;11.23;;
53618;SDS011;39505;53.040;18.488;2023-02-14T01:08:33;20.85;;;11.32;;
53618;SDS011;39505;53.040;18.488;2023-02-14T01:08:46;21.52;;;11.55;;
53618;SDS011;39505;53.040;18.488;2023-02-14T01:08:59;21.30;;;11.45;;
53618;SDS011;39505;53.040;18.488;2023-02-14T01:09:13;21.00;;;11.15;;
53618;SDS011;39505;53.040;18.488;2023-02-14T01:09:26;19.88;;;10.95;;
53618;SDS011;39505;53.040;18.488;2023-02-14T01:09:39;19.55;;;10.85;;
53618;SDS011;39505;53.040;18.488;2023-02-14T01:09:51;18.38;;;10.73;;
53618;SDS011;39505;53.040;18.488;2023-02-14T01:10:05;18.65;;;11.00;;
53618;SDS011;39505;53.040;18.488;2023-02-14T01:10:18;19.52;;;11.32;;
53618;SDS011;39505;53.040;18.488;2023-02-14T01:10:32;19.45;;;10.88;;
53618;SDS011;39505;53.040;18.488;2023-02-14T01:10:47;19.60;;;10.73;;
53618;SDS011;39505;53.040;18.488;2023-02-14T01:11:05;19.65;;;10.82;;
53618;SDS011;39505;53.040;18.488;2023-02-14T01:11:20;19.38;;;11.07;;
53618;SDS011;39505;53.040;18.488;2023-02-14T01:11:34;17.95;;;10.98;;
53618;SDS011;39505;53.040;18.488;2023-02-14T01:11:47;18.88;;;10.70;;
53618;SDS011;39505;53.040;18.488;2023-02-14T01:12:00;21.58;;;10.82;;
53618;SDS011;39505;53.040;18.488;2023-02-14T01:12:13;21.23;;;10.95;;
53618;SDS011;39505;53.040;18.488;2023-02-14T01:12:26;21.17;;;10.75;;
53618;SDS011;39505;53.040;18.488;2023-02-14T01:12:39;19.52;;;10.82;;
53618;SDS011;39505;53.040;18.488;2023-02-14T01:12:52;20.20;;;10.90;;
53618;SDS011;39505;53.040;18.488;2023-02-14T01:13:04;21.00;;;10.80;;
53618;SDS011;39505;53.040;18.488;2023-02-14T01:13:18;20.45;;;11.00;;
53618;SDS011;39505;53.040;18.488;2023-02-14T01:13:31;18.52;;;10.92;;
53618;SDS011;39505;53.040;18.488;2023-02-14T01:13:45;20.10;;;10.63;;
53618;SDS011;39505;53.040;18.488;2023-02-14T01:13:59;23.90;;;10.95;;
53618;SDS011;39505;53.040;18.488;2023-02-14T01:14:12;24.30;;;11.23;;
53618;SDS011;39505;53.040;18.488;2023-02-14T01:14:24;21.80;;;11.23;;
53618;SDS011;39505;53.040;18.488;2023-02-14T01:14:38;19.83;;;11.32;;
53618;SDS011;39505;53.040;18.488;2023-02-14T01:14:51;20.25;;;11.20;;
53618;SDS011;39505;53.040;18.488;2023-02-14T01:15:04;21.60;;;11.10;;
53618;SDS011;39505;53.040;18.488;2023-02-14T01:15:18;22.00;;;10.98;;
53618;SDS011;39505;53.040;18.488;2023-02-14T01:15:31;22.38;;;11.40;;
53618;SDS011;39505;53.040;18.488;2023-02-14T01:15:45;22.20;;;11.77;;
53618;SDS011;39505;53.040;18.488;2023-02-14T01:16:03;23.52;;;11.98;;
53618;SDS011;39505;53.040;18.488;2023-02-14T01:16:20;21.58;;;11.55;;
53618;SDS011;39505;53.040;18.488;2023-02-14T01:16:34;21.02;;;11.45;;
53618;SDS011;39505;53.040;18.488;2023-02-14T01:16:48;20.60;;;11.65;;
53618;SDS011;39505;53.040;18.488;2023-02-14T01:17:01;21.98;;;11.93;;
53618;SDS011;39505;53.040;18.488;2023-02-14T01:17:13;22.75;;;11.90;;
53618;SDS011;39505;53.040;18.488;2023-02-14T01:17:26;22.73;;;11.65;;
53618;SDS011;39505;53.040;18.488;2023-02-14T01:17:39;22.65;;;11.40;;
53618;SDS011;39505;53.040;18.488;2023-02-14T01:17:53;23.20;;;11.25;;
53618;SDS011;39505;53.040;18.488;2023-02-14T01:18:06;21.80;;;11.35;;
53618;SDS011;39505;53.040;18.488;2023-02-14T01:18:19;21.20;;;11.60;;
53618;SDS011;39505;53.040;18.488;2023-02-14T01:18:31;19.92;;;11.63;;
53618;SDS011;39505;53.040;18.488;2023-02-14T01:18:45;22.63;;;11.93;;